sensor_id;sensor_type;location;lat;lon;timestamp;pressure;altitude;pressure_sealevel;temperature;humidity
42761;BME280;31672;47.638;19.026;2022-09-13T00:02:37;100026.84;;;10.95;70.18
42761;BME280;31672;47.638;19.026;2022-09-13T00:07:39;100026.50;;;10.98;69.98
42761;BME280;31672;47.638;19.026;2022-09-13T00:12:42;100039.94;;;11.05;70.17
42761;BME280;31672;47.638;19.026;2022-09-13T00:17:45;100040.09;;;11.04;70.36
42761;BME280;31672;47.638;19.026;2022-09-13T00:22:48;100024.16;;;11.04;70.02
42761;BME280;31672;47.638;19.026;2022-09-13T00:27:51;100026.25;;;11.08;70.49
42761;BME280;31672;47.638;19.026;2022-09-13T00:32:54;100032.41;;;11.09;70.04
42761;BME280;31672;47.638;19.026;2022-09-13T00:37:59;100029.47;;;11.04;70.24
42761;BME280;31672;47.638;19.026;2022-09-13T00:43:02;100024.16;;;11.04;70.21
42761;BME280;31672;47.638;19.026;2022-09-13T00:48:06;100017.53;;;10.99;69.96
42761;BME280;31672;47.638;19.026;2022-09-13T00:53:17;100028.63;;;11.03;69.78
42761;BME280;31672;47.638;19.026;2022-09-13T00:58:24;100013.84;;;11.01;69.96
42761;BME280;31672;47.638;19.026;2022-09-13T01:03:32;100020.50;;;11.05;69.77
42761;BME280;31672;47.638;19.026;2022-09-13T01:08:38;100010.69;;;11.05;70.12
42761;BME280;31672;47.638;19.026;2022-09-13T01:13:43;100022.13;;;11.06;70.26
42761;BME280;31672;47.638;19.026;2022-09-13T01:18:46;100023.47;;;11.02;70.06
42761;BME280;31672;47.638;19.026;2022-09-13T01:30:02;100010.75;;;10.89;70.70
42761;BME280;31672;47.638;19.026;2022-09-13T01:46:44;100016.00;;;10.66;71.74
42761;BME280;31672;47.638;19.026;2022-09-13T01:57:45;100004.47;;;10.42;71.98
42761;BME280;31672;47.638;19.026;2022-09-13T02:03:23;100004.69;;;10.33;72.58
42761;BME280;31672;47.638;19.026;2022-09-13T02:08:44;99995.72;;;10.17;72.86
42761;BME280;31672;47.638;19.026;2022-09-13T02:14:09;99999.72;;;10.13;73.31
42761;BME280;31672;47.638;19.026;2022-09-13T02:19:25;100004.22;;;10.05;73.64
42761;BME280;31672;47.638;19.026;2022-09-13T02:24:37;100007.56;;;9.99;73.98
42761;BME280;31672;47.638;19.026;2022-09-13T02:29:47;100004.09;;;9.82;74.01
42761;BME280;31672;47.638;19.026;2022-09-13T02:35:14;100010.25;;;9.74;74.28
42761;BME280;31672;47.638;19.026;2022-09-13T02:40:22;100005.63;;;9.60;74.56
42761;BME280;31672;47.638;19.026;2022-09-13T02:45:41;100000.63;;;9.49;74.65
42761;BME280;31672;47.638;19.026;2022-09-13T02:51:04;99991.50;;;9.35;75.00
42761;BME280;31672;47.638;19.026;2022-09-13T02:56:22;99987.19;;;9.26;76.03
42761;BME280;31672;47.638;19.026;2022-09-13T03:01:32;99981.03;;;9.17;76.10
42761;BME280;31672;47.638;19.026;2022-09-13T03:06:37;99989.16;;;9.16;76.19
42761;BME280;31672;47.638;19.026;2022-09-13T03:17:45;99991.31;;;9.04;76.76
42761;BME280;31672;47.638;19.026;2022-09-13T03:29:05;99994.25;;;8.93;77.15
42761;BME280;31672;47.638;19.026;2022-09-13T03:39:46;99975.88;;;8.83;77.70
42761;BME280;31672;47.638;19.026;2022-09-13T03:44:50;99968.22;;;8.80;77.95
42761;BME280;31672;47.638;19.026;2022-09-13T03:49:56;99966.56;;;8.79;78.05
42761;BME280;31672;47.638;19.026;2022-09-13T03:55:00;99959.44;;;8.71;78.10
42761;BME280;31672;47.638;19.026;2022-09-13T04:00:03;99959.25;;;8.65;78.17
42761;BME280;31672;47.638;19.026;2022-09-13T04:05:07;99963.50;;;8.57;78.17
42761;BME280;31672;47.638;19.026;2022-09-13T04:10:09;99960.22;;;8.55;78.61
42761;BME280;31672;47.638;19.026;2022-09-13T04:15:15;99964.31;;;8.50;79.00
42761;BME280;31672;47.638;19.026;2022-09-13T04:20:18;99963.50;;;8.49;79.24
42761;BME280;31672;47.638;19.026;2022-09-13T04:25:23;99964.50;;;8.48;79.43
42761;BME280;31672;47.638;19.026;2022-09-13T04:30:26;99965.00;;;8.52;79.48
42761;BME280;31672;47.638;19.026;2022-09-13T04:35:30;99967.31;;;8.55;79.93
42761;BME280;31672;47.638;19.026;2022-09-13T04:40:33;99964.38;;;8.58;80.15
42761;BME280;31672;47.638;19.026;2022-09-13T04:45:36;99967.34;;;8.63;80.48
42761;BME280;31672;47.638;19.026;2022-09-13T04:50:39;99957.75;;;8.62;80.68
42761;BME280;31672;47.638;19.026;2022-09-13T04:55:42;99959.94;;;8.75;80.93
42761;BME280;31672;47.638;19.026;2022-09-13T05:00:45;99968.75;;;8.92;80.92
42761;BME280;31672;47.638;19.026;2022-09-13T05:05:49;99974.09;;;9.08;80.50
42761;BME280;31672;47.638;19.026;2022-09-13T05:10:52;99980.72;;;9.20;80.52
42761;BME280;31672;47.638;19.026;2022-09-13T05:16:01;99991.84;;;9.32;80.32
42761;BME280;31672;47.638;19.026;2022-09-13T05:21:04;99988.34;;;9.39;79.96
42761;BME280;31672;47.638;19.026;2022-09-13T05:26:07;99999.28;;;9.53;79.76
42761;BME280;31672;47.638;19.026;2022-09-13T05:31:22;99998.31;;;9.62;79.92
42761;BME280;31672;47.638;19.026;2022-09-13T05:36:30;99989.00;;;9.74;79.94
42761;BME280;31672;47.638;19.026;2022-09-13T05:41:33;99986.03;;;9.85;80.09
42761;BME280;31672;47.638;19.026;2022-09-13T05:46:36;99984.81;;;10.04;80.40
42761;BME280;31672;47.638;19.026;2022-09-13T05:51:39;99995.75;;;10.26;80.84
42761;BME280;31672;47.638;19.026;2022-09-13T05:56:42;99998.53;;;10.40;80.55
42761;BME280;31672;47.638;19.026;2022-09-13T06:01:45;99987.84;;;10.57;80.46
42761;BME280;31672;47.638;19.026;2022-09-13T06:06:49;99994.44;;;10.69;79.79
42761;BME280;31672;47.638;19.026;2022-09-13T06:11:52;99994.03;;;10.80;79.37
42761;BME280;31672;47.638;19.026;2022-09-13T06:16:55;99986.56;;;11.07;79.36
42761;BME280;31672;47.638;19.026;2022-09-13T06:21:58;99990.25;;;11.29;79.17
42761;BME280;31672;47.638;19.026;2022-09-13T06:27:01;99987.56;;;11.51;78.27
42761;BME280;31672;47.638;19.026;2022-09-13T06:32:03;99978.00;;;11.80;77.75
42761;BME280;31672;47.638;19.026;2022-09-13T06:37:07;99991.09;;;12.04;77.03
42761;BME280;31672;47.638;19.026;2022-09-13T06:42:09;99992.66;;;12.28;76.21
42761;BME280;31672;47.638;19.026;2022-09-13T06:47:12;99981.16;;;12.57;74.94
42761;BME280;31672;47.638;19.026;2022-09-13T06:52:15;99979.66;;;12.84;74.40
42761;BME280;31672;47.638;19.026;2022-09-13T06:57:18;99976.25;;;13.12;73.32
42761;BME280;31672;47.638;19.026;2022-09-13T07:02:21;99982.97;;;13.44;72.67
42761;BME280;31672;47.638;19.026;2022-09-13T07:07:26;99980.69;;;13.69;72.37
42761;BME280;31672;47.638;19.026;2022-09-13T07:12:28;99982.38;;;13.98;71.55
42761;BME280;31672;47.638;19.026;2022-09-13T07:17:31;99990.94;;;14.22;71.01
42761;BME280;31672;47.638;19.026;2022-09-13T07:22:34;99982.44;;;14.46;69.81
42761;BME280;31672;47.638;19.026;2022-09-13T07:27:37;99987.09;;;14.72;68.12
42761;BME280;31672;47.638;19.026;2022-09-13T07:32:39;99984.31;;;15.00;68.07
42761;BME280;31672;47.638;19.026;2022-09-13T07:37:44;99982.72;;;15.25;65.30
42761;BME280;31672;47.638;19.026;2022-09-13T07:42:48;99975.75;;;15.51;64.52
42761;BME280;31672;47.638;19.026;2022-09-13T07:47:51;99982.38;;;15.82;62.92
42761;BME280;31672;47.638;19.026;2022-09-13T07:52:55;99977.81;;;16.09;62.75
42761;BME280;31672;47.638;19.026;2022-09-13T07:57:58;99972.00;;;16.31;61.73
42761;BME280;31672;47.638;19.026;2022-09-13T08:03:02;99964.09;;;16.50;61.16
42761;BME280;31672;47.638;19.026;2022-09-13T08:08:05;99968.53;;;16.76;61.11
42761;BME280;31672;47.638;19.026;2022-09-13T08:13:08;99962.25;;;16.95;60.01
42761;BME280;31672;47.638;19.026;2022-09-13T08:18:11;99953.63;;;17.18;58.45
42761;BME280;31672;47.638;19.026;2022-09-13T08:23:14;99954.66;;;17.49;57.95
42761;BME280;31672;47.638;19.026;2022-09-13T08:28:19;99952.09;;;17.85;56.51
42761;BME280;31672;47.638;19.026;2022-09-13T08:33:29;99942.19;;;18.23;55.48
42761;BME280;31672;47.638;19.026;2022-09-13T08:38:32;99945.91;;;18.58;53.57
42761;BME280;31672;47.638;19.026;2022-09-13T08:54:25;99921.88;;;19.47;50.73
42761;BME280;31672;47.638;19.026;2022-09-13T09:00:18;99926.13;;;19.66;48.58
42761;BME280;31672;47.638;19.026;2022-09-13T09:05:24;99926.50;;;19.82;47.88
42761;BME280;31672;47.638;19.026;2022-09-13T09:10:32;99920.72;;;20.01;46.41
42761;BME280;31672;47.638;19.026;2022-09-13T09:16:27;99910.63;;;19.97;46.65
42761;BME280;31672;47.638;19.026;2022-09-13T09:21:32;99905.34;;;20.14;46.58
42761;BME280;31672;47.638;19.026;2022-09-13T09:26:36;99897.31;;;20.42;46.11
42761;BME280;31672;47.638;19.026;2022-09-13T09:37:06;99879.88;;;20.90;44.09
42761;BME280;31672;47.638;19.026;2022-09-13T09:42:22;99882.25;;;21.03;44.24
42761;BME280;31672;47.638;19.026;2022-09-13T09:47:30;99875.50;;;21.18;43.22
42761;BME280;31672;47.638;19.026;2022-09-13T09:53:17;99859.72;;;21.43;43.70
42761;BME280;31672;47.638;19.026;2022-09-13T10:03:38;99845.56;;;21.75;42.54
42761;BME280;31672;47.638;19.026;2022-09-13T10:08:43;99837.69;;;21.73;42.50
42761;BME280;31672;47.638;19.026;2022-09-13T10:14:02;99841.53;;;21.77;41.70
42761;BME280;31672;47.638;19.026;2022-09-13T10:19:36;99832.59;;;21.77;41.65
42761;BME280;31672;47.638;19.026;2022-09-13T10:24:39;99822.22;;;21.69;41.73
42761;BME280;31672;47.638;19.026;2022-09-13T10:29:47;99821.03;;;21.81;41.96
42761;BME280;31672;47.638;19.026;2022-09-13T10:34:52;99812.72;;;21.88;41.70
42761;BME280;31672;47.638;19.026;2022-09-13T10:40:10;99819.19;;;22.26;42.54
42761;BME280;31672;47.638;19.026;2022-09-13T10:45:23;99821.63;;;22.27;40.35
42761;BME280;31672;47.638;19.026;2022-09-13T10:50:28;99810.56;;;22.56;40.40
42761;BME280;31672;47.638;19.026;2022-09-13T10:55:38;99798.38;;;22.85;39.96
42761;BME280;31672;47.638;19.026;2022-09-13T11:06:29;99806.41;;;23.92;37.29
42761;BME280;31672;47.638;19.026;2022-09-13T11:23:16;99787.06;;;25.17;34.95
42761;BME280;31672;47.638;19.026;2022-09-13T11:34:34;99774.81;;;25.40;33.39
42761;BME280;31672;47.638;19.026;2022-09-13T11:45:26;99763.16;;;24.63;33.11
42761;BME280;31672;47.638;19.026;2022-09-13T11:56:30;99753.59;;;24.25;33.73
42761;BME280;31672;47.638;19.026;2022-09-13T12:01:43;99769.53;;;24.01;34.31
42761;BME280;31672;47.638;19.026;2022-09-13T12:07:02;99759.94;;;23.73;34.66
42761;BME280;31672;47.638;19.026;2022-09-13T12:12:13;99754.66;;;23.51;34.89
42761;BME280;31672;47.638;19.026;2022-09-13T12:22:35;99748.28;;;23.30;35.83
42761;BME280;31672;47.638;19.026;2022-09-13T12:28:05;99735.44;;;23.10;36.18
42761;BME280;31672;47.638;19.026;2022-09-13T12:33:14;99735.09;;;23.02;35.88
42761;BME280;31672;47.638;19.026;2022-09-13T13:00:46;99732.97;;;22.39;38.66
42761;BME280;31672;47.638;19.026;2022-09-13T13:06:34;99741.84;;;22.35;39.00
42761;BME280;31672;47.638;19.026;2022-09-13T13:11:44;99747.63;;;22.16;38.98
42761;BME280;31672;47.638;19.026;2022-09-13T13:16:49;99739.44;;;22.11;40.21
42761;BME280;31672;47.638;19.026;2022-09-13T13:21:51;99725.41;;;22.14;40.46
42761;BME280;31672;47.638;19.026;2022-09-13T13:26:58;99736.84;;;22.22;40.72
42761;BME280;31672;47.638;19.026;2022-09-13T13:42:26;99713.03;;;22.51;41.09
42761;BME280;31672;47.638;19.026;2022-09-13T14:24:25;99679.09;;;22.75;41.20
42761;BME280;31672;47.638;19.026;2022-09-13T14:29:29;99679.38;;;22.79;40.72
42761;BME280;31672;47.638;19.026;2022-09-13T14:34:35;99668.38;;;22.90;41.02
42761;BME280;31672;47.638;19.026;2022-09-13T14:45:01;99667.38;;;23.07;40.85
42761;BME280;31672;47.638;19.026;2022-09-13T14:50:56;99661.75;;;23.18;40.95
42761;BME280;31672;47.638;19.026;2022-09-13T14:56:10;99665.59;;;23.22;39.89
42761;BME280;31672;47.638;19.026;2022-09-13T15:01:20;99656.94;;;23.31;39.23
42761;BME280;31672;47.638;19.026;2022-09-13T15:06:28;99653.72;;;23.44;39.40
42761;BME280;31672;47.638;19.026;2022-09-13T15:11:34;99639.69;;;23.57;38.56
42761;BME280;31672;47.638;19.026;2022-09-13T15:16:53;99635.34;;;23.61;38.57
42761;BME280;31672;47.638;19.026;2022-09-13T15:22:18;99636.94;;;23.42;38.67
42761;BME280;31672;47.638;19.026;2022-09-13T15:27:41;99629.44;;;23.07;39.45
42761;BME280;31672;47.638;19.026;2022-09-13T15:32:45;99633.31;;;22.74;40.42
42761;BME280;31672;47.638;19.026;2022-09-13T15:38:54;99634.78;;;22.49;41.08
42761;BME280;31672;47.638;19.026;2022-09-13T15:43:23;99633.25;;;22.26;42.04
42761;BME280;31672;47.638;19.026;2022-09-13T15:48:32;99627.06;;;22.04;42.52
42761;BME280;31672;47.638;19.026;2022-09-13T15:53:38;99622.56;;;21.87;42.83
42761;BME280;31672;47.638;19.026;2022-09-13T15:58:41;99619.41;;;21.69;43.29
42761;BME280;31672;47.638;19.026;2022-09-13T16:03:45;99613.00;;;21.53;43.65
42761;BME280;31672;47.638;19.026;2022-09-13T16:08:48;99617.94;;;21.34;44.62
42761;BME280;31672;47.638;19.026;2022-09-13T16:13:50;99606.88;;;21.14;44.64
42761;BME280;31672;47.638;19.026;2022-09-13T16:18:53;99606.66;;;20.98;44.88
42761;BME280;31672;47.638;19.026;2022-09-13T16:23:56;99606.78;;;20.87;45.60
42761;BME280;31672;47.638;19.026;2022-09-13T16:28:59;99599.03;;;20.73;46.67
42761;BME280;31672;47.638;19.026;2022-09-13T16:34:02;99604.97;;;20.53;47.19
42761;BME280;31672;47.638;19.026;2022-09-13T16:39:05;99601.09;;;20.32;48.05
42761;BME280;31672;47.638;19.026;2022-09-13T16:44:07;99612.13;;;20.14;48.46
42761;BME280;31672;47.638;19.026;2022-09-13T16:49:10;99616.47;;;19.98;48.95
42761;BME280;31672;47.638;19.026;2022-09-13T16:54:13;99623.13;;;19.79;49.53
42761;BME280;31672;47.638;19.026;2022-09-13T16:59:16;99612.78;;;19.59;50.75
42761;BME280;31672;47.638;19.026;2022-09-13T17:04:19;99616.72;;;19.40;50.88
42761;BME280;31672;47.638;19.026;2022-09-13T17:09:22;99622.25;;;19.21;51.83
42761;BME280;31672;47.638;19.026;2022-09-13T17:14:29;99625.13;;;19.03;52.48
42761;BME280;31672;47.638;19.026;2022-09-13T17:19:32;99625.25;;;18.85;52.66
42761;BME280;31672;47.638;19.026;2022-09-13T17:24:36;99614.38;;;18.68;52.88
42761;BME280;31672;47.638;19.026;2022-09-13T17:29:39;99615.75;;;18.47;53.77
42761;BME280;31672;47.638;19.026;2022-09-13T17:34:41;99624.28;;;18.32;54.18
42761;BME280;31672;47.638;19.026;2022-09-13T17:39:45;99612.13;;;18.18;54.36
42761;BME280;31672;47.638;19.026;2022-09-13T17:44:48;99625.66;;;18.11;54.80
42761;BME280;31672;47.638;19.026;2022-09-13T17:49:51;99617.09;;;18.03;55.26
42761;BME280;31672;47.638;19.026;2022-09-13T17:54:54;99621.38;;;17.92;55.44
42761;BME280;31672;47.638;19.026;2022-09-13T17:59:57;99615.53;;;17.83;55.70
42761;BME280;31672;47.638;19.026;2022-09-13T18:05:01;99619.59;;;17.74;56.06
42761;BME280;31672;47.638;19.026;2022-09-13T18:10:10;99621.53;;;17.67;56.79
42761;BME280;31672;47.638;19.026;2022-09-13T18:15:33;99635.44;;;17.64;57.35
42761;BME280;31672;47.638;19.026;2022-09-13T18:20:35;99641.81;;;17.63;57.75
42761;BME280;31672;47.638;19.026;2022-09-13T18:25:42;99641.25;;;17.61;58.43
42761;BME280;31672;47.638;19.026;2022-09-13T18:30:54;99649.75;;;17.58;58.59
42761;BME280;31672;47.638;19.026;2022-09-13T18:36:04;99651.63;;;17.57;58.73
42761;BME280;31672;47.638;19.026;2022-09-13T18:41:13;99653.13;;;17.53;59.29
42761;BME280;31672;47.638;19.026;2022-09-13T18:46:21;99650.53;;;17.47;59.64
42761;BME280;31672;47.638;19.026;2022-09-13T18:51:29;99663.56;;;17.43;59.89
42761;BME280;31672;47.638;19.026;2022-09-13T18:56:34;99659.91;;;17.37;60.24
42761;BME280;31672;47.638;19.026;2022-09-13T19:01:40;99653.38;;;17.33;60.66
42761;BME280;31672;47.638;19.026;2022-09-13T19:06:50;99656.72;;;17.29;60.56
42761;BME280;31672;47.638;19.026;2022-09-13T19:11:54;99657.97;;;17.26;60.68
42761;BME280;31672;47.638;19.026;2022-09-13T19:16:58;99654.31;;;17.21;60.23
42761;BME280;31672;47.638;19.026;2022-09-13T19:22:06;99656.19;;;17.20;60.67
42761;BME280;31672;47.638;19.026;2022-09-13T19:27:08;99656.19;;;17.20;60.43
42761;BME280;31672;47.638;19.026;2022-09-13T19:32:11;99652.25;;;17.23;60.20
42761;BME280;31672;47.638;19.026;2022-09-13T19:37:14;99640.91;;;17.21;60.99
42761;BME280;31672;47.638;19.026;2022-09-13T19:42:17;99638.69;;;17.18;61.16
42761;BME280;31672;47.638;19.026;2022-09-13T19:47:20;99642.19;;;17.18;61.67
42761;BME280;31672;47.638;19.026;2022-09-13T19:52:44;99646.50;;;17.19;62.15
42761;BME280;31672;47.638;19.026;2022-09-13T19:57:47;99651.28;;;17.17;62.38
42761;BME280;31672;47.638;19.026;2022-09-13T20:02:49;99654.22;;;17.16;62.78
42761;BME280;31672;47.638;19.026;2022-09-13T20:07:54;99659.78;;;17.14;63.22
42761;BME280;31672;47.638;19.026;2022-09-13T20:12:57;99659.78;;;17.14;63.13
42761;BME280;31672;47.638;19.026;2022-09-13T20:18:00;99650.69;;;17.15;63.43
42761;BME280;31672;47.638;19.026;2022-09-13T20:23:03;99648.44;;;17.12;64.08
42761;BME280;31672;47.638;19.026;2022-09-13T20:28:06;99643.91;;;17.12;63.81
42761;BME280;31672;47.638;19.026;2022-09-13T20:33:08;99647.88;;;17.10;63.94
42761;BME280;31672;47.638;19.026;2022-09-13T20:38:11;99638.38;;;17.07;63.86
42761;BME280;31672;47.638;19.026;2022-09-13T20:43:14;99639.66;;;17.05;64.36
42761;BME280;31672;47.638;19.026;2022-09-13T20:48:17;99638.47;;;17.01;64.85
42761;BME280;31672;47.638;19.026;2022-09-13T20:53:21;99631.69;;;16.98;65.01
42761;BME280;31672;47.638;19.026;2022-09-13T20:58:23;99634.56;;;16.97;64.45
42761;BME280;31672;47.638;19.026;2022-09-13T21:03:27;99633.16;;;16.94;64.52
42761;BME280;31672;47.638;19.026;2022-09-13T21:08:29;99622.28;;;16.89;65.09
42761;BME280;31672;47.638;19.026;2022-09-13T21:13:51;99630.16;;;16.84;65.65
42761;BME280;31672;47.638;19.026;2022-09-13T21:18:55;99630.00;;;16.79;66.30
42761;BME280;31672;47.638;19.026;2022-09-13T21:23:59;99622.84;;;16.73;66.56
42761;BME280;31672;47.638;19.026;2022-09-13T21:29:03;99625.56;;;16.66;66.98
42761;BME280;31672;47.638;19.026;2022-09-13T21:34:14;99629.75;;;16.62;67.36
42761;BME280;31672;47.638;19.026;2022-09-13T21:39:17;99624.81;;;16.59;67.40
42761;BME280;31672;47.638;19.026;2022-09-13T21:44:20;99628.16;;;16.54;67.79
42761;BME280;31672;47.638;19.026;2022-09-13T21:49:23;99630.06;;;16.47;68.26
42761;BME280;31672;47.638;19.026;2022-09-13T21:54:26;99628.88;;;16.43;68.89
42761;BME280;31672;47.638;19.026;2022-09-13T21:59:29;99631.19;;;16.40;69.36
42761;BME280;31672;47.638;19.026;2022-09-13T22:04:31;99620.75;;;16.31;70.13
42761;BME280;31672;47.638;19.026;2022-09-13T22:09:36;99629.59;;;16.32;70.35
42761;BME280;31672;47.638;19.026;2022-09-13T22:14:39;99616.41;;;16.30;70.44
42761;BME280;31672;47.638;19.026;2022-09-13T22:19:41;99613.94;;;16.29;70.74
42761;BME280;31672;47.638;19.026;2022-09-13T22:24:44;99602.00;;;16.25;70.82
42761;BME280;31672;47.638;19.026;2022-09-13T22:29:48;99594.84;;;16.19;70.59
42761;BME280;31672;47.638;19.026;2022-09-13T22:34:50;99587.31;;;16.09;70.36
42761;BME280;31672;47.638;19.026;2022-09-13T22:39:53;99588.59;;;16.00;70.58
42761;BME280;31672;47.638;19.026;2022-09-13T22:44:57;99592.03;;;15.82;70.60
42761;BME280;31672;47.638;19.026;2022-09-13T22:50:00;99586.53;;;15.70;71.02
42761;BME280;31672;47.638;19.026;2022-09-13T22:55:03;99593.19;;;15.61;71.15
42761;BME280;31672;47.638;19.026;2022-09-13T23:00:07;99596.94;;;15.47;71.55
42761;BME280;31672;47.638;19.026;2022-09-13T23:05:10;99600.50;;;15.34;71.78
42761;BME280;31672;47.638;19.026;2022-09-13T23:10:13;99589.03;;;15.27;71.63
42761;BME280;31672;47.638;19.026;2022-09-13T23:15:16;99593.19;;;15.16;71.81
42761;BME280;31672;47.638;19.026;2022-09-13T23:20:21;99600.41;;;15.09;72.37
42761;BME280;31672;47.638;19.026;2022-09-13T23:25:24;99592.63;;;15.01;72.10
42761;BME280;31672;47.638;19.026;2022-09-13T23:30:26;99589.34;;;14.92;72.40
42761;BME280;31672;47.638;19.026;2022-09-13T23:35:29;99594.34;;;14.82;73.12
42761;BME280;31672;47.638;19.026;2022-09-13T23:40:33;99595.38;;;14.75;73.88
42761;BME280;31672;47.638;19.026;2022-09-13T23:45:37;99597.25;;;14.67;74.35
42761;BME280;31672;47.638;19.026;2022-09-13T23:50:40;99600.38;;;14.58;74.99
42761;BME280;31672;47.638;19.026;2022-09-13T23:55:42;99596.25;;;14.49;75.13
